sensor_id;sensor_type;location;lat;lon;timestamp;P1;durP1;ratioP1;P2;durP2;ratioP2
43676;SDS011;29275;48.800;18.102;2023-09-19T00:00:35;8.68;;;7.68;;
43676;SDS011;29275;48.800;18.102;2023-09-19T00:03:38;8.18;;;5.95;;
43676;SDS011;29275;48.800;18.102;2023-09-19T00:06:42;7.88;;;6.03;;
43676;SDS011;29275;48.800;18.102;2023-09-19T00:09:46;8.43;;;6.30;;
43676;SDS011;29275;48.800;18.102;2023-09-19T00:12:55;8.50;;;6.38;;
43676;SDS011;29275;48.800;18.102;2023-09-19T00:15:59;9.13;;;6.38;;
43676;SDS011;29275;48.800;18.102;2023-09-19T00:19:04;11.98;;;6.95;;
43676;SDS011;29275;48.800;18.102;2023-09-19T00:22:11;7.72;;;6.93;;
43676;SDS011;29275;48.800;18.102;2023-09-19T00:25:15;9.95;;;6.82;;
43676;SDS011;29275;48.800;18.102;2023-09-19T00:28:19;10.52;;;7.50;;
43676;SDS011;29275;48.800;18.102;2023-09-19T00:31:24;9.70;;;7.43;;
43676;SDS011;29275;48.800;18.102;2023-09-19T00:34:31;11.32;;;7.65;;
43676;SDS011;29275;48.800;18.102;2023-09-19T00:37:37;9.38;;;6.63;;
43676;SDS011;29275;48.800;18.102;2023-09-19T00:40:46;7.60;;;6.50;;
43676;SDS011;29275;48.800;18.102;2023-09-19T00:43:52;11.13;;;7.03;;
43676;SDS011;29275;48.800;18.102;2023-09-19T00:46:54;14.55;;;7.28;;
43676;SDS011;29275;48.800;18.102;2023-09-19T00:49:58;8.73;;;7.38;;
43676;SDS011;29275;48.800;18.102;2023-09-19T00:53:01;9.10;;;7.65;;
43676;SDS011;29275;48.800;18.102;2023-09-19T00:56:10;8.07;;;6.80;;
43676;SDS011;29275;48.800;18.102;2023-09-19T00:59:13;12.00;;;7.70;;
43676;SDS011;29275;48.800;18.102;2023-09-19T01:02:19;12.65;;;8.30;;
43676;SDS011;29275;48.800;18.102;2023-09-19T01:05:22;11.27;;;7.20;;
43676;SDS011;29275;48.800;18.102;2023-09-19T01:08:26;13.27;;;8.68;;
43676;SDS011;29275;48.800;18.102;2023-09-19T01:11:33;12.15;;;8.10;;
43676;SDS011;29275;48.800;18.102;2023-09-19T01:14:44;9.55;;;7.50;;
43676;SDS011;29275;48.800;18.102;2023-09-19T01:31:11;6.57;;;5.88;;
43676;SDS011;29275;48.800;18.102;2023-09-19T01:34:15;11.23;;;7.05;;
43676;SDS011;29275;48.800;18.102;2023-09-19T01:37:20;10.07;;;7.80;;
43676;SDS011;29275;48.800;18.102;2023-09-19T01:40:28;9.35;;;7.18;;
43676;SDS011;29275;48.800;18.102;2023-09-19T01:43:37;11.25;;;8.23;;
43676;SDS011;29275;48.800;18.102;2023-09-19T01:46:49;9.93;;;7.45;;
43676;SDS011;29275;48.800;18.102;2023-09-19T01:49:55;7.55;;;6.50;;
43676;SDS011;29275;48.800;18.102;2023-09-19T01:53:06;8.80;;;7.55;;
43676;SDS011;29275;48.800;18.102;2023-09-19T01:56:21;9.90;;;6.85;;
43676;SDS011;29275;48.800;18.102;2023-09-19T01:59:43;11.30;;;7.15;;
43676;SDS011;29275;48.800;18.102;2023-09-19T02:02:51;8.52;;;7.05;;
43676;SDS011;29275;48.800;18.102;2023-09-19T02:05:58;14.93;;;7.40;;
43676;SDS011;29275;48.800;18.102;2023-09-19T02:09:00;14.55;;;7.45;;
43676;SDS011;29275;48.800;18.102;2023-09-19T02:12:05;9.55;;;6.65;;
43676;SDS011;29275;48.800;18.102;2023-09-19T02:15:08;10.15;;;6.68;;
43676;SDS011;29275;48.800;18.102;2023-09-19T02:18:14;11.03;;;7.30;;
43676;SDS011;29275;48.800;18.102;2023-09-19T02:21:17;8.15;;;7.30;;
43676;SDS011;29275;48.800;18.102;2023-09-19T02:24:22;11.65;;;7.05;;
43676;SDS011;29275;48.800;18.102;2023-09-19T02:27:30;8.85;;;6.60;;
43676;SDS011;29275;48.800;18.102;2023-09-19T02:30:33;11.02;;;7.30;;
43676;SDS011;29275;48.800;18.102;2023-09-19T02:33:36;12.73;;;6.68;;
43676;SDS011;29275;48.800;18.102;2023-09-19T02:36:39;13.35;;;7.60;;
43676;SDS011;29275;48.800;18.102;2023-09-19T02:39:43;8.40;;;6.32;;
43676;SDS011;29275;48.800;18.102;2023-09-19T02:42:48;11.32;;;7.63;;
43676;SDS011;29275;48.800;18.102;2023-09-19T02:45:52;11.40;;;7.90;;
43676;SDS011;29275;48.800;18.102;2023-09-19T02:48:59;8.88;;;7.47;;
43676;SDS011;29275;48.800;18.102;2023-09-19T02:52:03;9.52;;;7.88;;
43676;SDS011;29275;48.800;18.102;2023-09-19T02:55:07;9.05;;;7.65;;
43676;SDS011;29275;48.800;18.102;2023-09-19T02:58:12;13.63;;;8.25;;
43676;SDS011;29275;48.800;18.102;2023-09-19T03:01:17;10.70;;;7.70;;
43676;SDS011;29275;48.800;18.102;2023-09-19T03:04:23;12.98;;;8.68;;
43676;SDS011;29275;48.800;18.102;2023-09-19T03:07:28;12.43;;;7.90;;
43676;SDS011;29275;48.800;18.102;2023-09-19T03:10:32;9.82;;;7.13;;
43676;SDS011;29275;48.800;18.102;2023-09-19T03:13:35;10.30;;;8.00;;
43676;SDS011;29275;48.800;18.102;2023-09-19T03:16:42;9.15;;;7.32;;
43676;SDS011;29275;48.800;18.102;2023-09-19T03:19:49;13.93;;;8.68;;
43676;SDS011;29275;48.800;18.102;2023-09-19T03:22:53;10.85;;;7.68;;
43676;SDS011;29275;48.800;18.102;2023-09-19T03:25:57;7.70;;;6.28;;
43676;SDS011;29275;48.800;18.102;2023-09-19T03:29:05;9.93;;;4.88;;
43676;SDS011;29275;48.800;18.102;2023-09-19T03:32:09;7.22;;;5.18;;
43676;SDS011;29275;48.800;18.102;2023-09-19T03:35:13;12.25;;;5.40;;
43676;SDS011;29275;48.800;18.102;2023-09-19T03:38:17;10.70;;;5.15;;
43676;SDS011;29275;48.800;18.102;2023-09-19T03:41:20;9.98;;;5.30;;
43676;SDS011;29275;48.800;18.102;2023-09-19T03:44:27;10.40;;;4.35;;
43676;SDS011;29275;48.800;18.102;2023-09-19T03:47:29;5.53;;;4.10;;
43676;SDS011;29275;48.800;18.102;2023-09-19T03:50:35;6.82;;;4.25;;
43676;SDS011;29275;48.800;18.102;2023-09-19T03:53:38;7.65;;;3.75;;
43676;SDS011;29275;48.800;18.102;2023-09-19T03:56:42;10.65;;;3.33;;
43676;SDS011;29275;48.800;18.102;2023-09-19T03:59:46;6.20;;;3.80;;
43676;SDS011;29275;48.800;18.102;2023-09-19T04:02:51;7.82;;;3.95;;
43676;SDS011;29275;48.800;18.102;2023-09-19T04:05:58;4.93;;;3.95;;
43676;SDS011;29275;48.800;18.102;2023-09-19T04:09:02;8.95;;;4.05;;
43676;SDS011;29275;48.800;18.102;2023-09-19T04:12:15;11.73;;;4.38;;
43676;SDS011;29275;48.800;18.102;2023-09-19T04:15:40;7.22;;;3.30;;
43676;SDS011;29275;48.800;18.102;2023-09-19T04:19:11;10.32;;;4.25;;
43676;SDS011;29275;48.800;18.102;2023-09-19T04:22:14;7.55;;;4.35;;
43676;SDS011;29275;48.800;18.102;2023-09-19T04:25:18;7.80;;;4.65;;
43676;SDS011;29275;48.800;18.102;2023-09-19T04:28:21;5.35;;;3.95;;
43676;SDS011;29275;48.800;18.102;2023-09-19T04:31:25;5.85;;;3.65;;
43676;SDS011;29275;48.800;18.102;2023-09-19T04:34:28;5.38;;;2.70;;
43676;SDS011;29275;48.800;18.102;2023-09-19T04:37:32;8.73;;;3.05;;
43676;SDS011;29275;48.800;18.102;2023-09-19T04:40:35;7.50;;;3.00;;
43676;SDS011;29275;48.800;18.102;2023-09-19T04:43:43;4.05;;;2.38;;
43676;SDS011;29275;48.800;18.102;2023-09-19T04:46:47;4.35;;;2.55;;
43676;SDS011;29275;48.800;18.102;2023-09-19T04:49:50;3.53;;;1.67;;
43676;SDS011;29275;48.800;18.102;2023-09-19T04:52:53;1.73;;;1.10;;
43676;SDS011;29275;48.800;18.102;2023-09-19T04:55:57;3.28;;;1.20;;
43676;SDS011;29275;48.800;18.102;2023-09-19T04:59:00;4.88;;;0.70;;
43676;SDS011;29275;48.800;18.102;2023-09-19T05:02:03;3.25;;;0.77;;
43676;SDS011;29275;48.800;18.102;2023-09-19T05:05:08;1.27;;;0.40;;
43676;SDS011;29275;48.800;18.102;2023-09-19T05:08:14;2.30;;;0.60;;
43676;SDS011;29275;48.800;18.102;2023-09-19T05:11:18;4.32;;;0.60;;
43676;SDS011;29275;48.800;18.102;2023-09-19T05:14:22;2.75;;;0.45;;
43676;SDS011;29275;48.800;18.102;2023-09-19T05:17:27;4.43;;;0.60;;
43676;SDS011;29275;48.800;18.102;2023-09-19T05:20:30;4.10;;;0.50;;
43676;SDS011;29275;48.800;18.102;2023-09-19T05:23:35;1.50;;;0.50;;
43676;SDS011;29275;48.800;18.102;2023-09-19T05:26:40;4.38;;;0.80;;
43676;SDS011;29275;48.800;18.102;2023-09-19T05:29:43;2.38;;;0.70;;
43676;SDS011;29275;48.800;18.102;2023-09-19T05:32:47;1.02;;;0.43;;
43676;SDS011;29275;48.800;18.102;2023-09-19T05:35:50;2.17;;;0.50;;
43676;SDS011;29275;48.800;18.102;2023-09-19T05:38:53;2.97;;;0.50;;
43676;SDS011;29275;48.800;18.102;2023-09-19T05:41:56;1.90;;;0.50;;
43676;SDS011;29275;48.800;18.102;2023-09-19T05:44:59;3.63;;;0.40;;
43676;SDS011;29275;48.800;18.102;2023-09-19T05:48:12;1.10;;;0.40;;
43676;SDS011;29275;48.800;18.102;2023-09-19T05:51:17;1.77;;;0.60;;
43676;SDS011;29275;48.800;18.102;2023-09-19T05:54:20;3.85;;;0.35;;
43676;SDS011;29275;48.800;18.102;2023-09-19T05:57:23;2.85;;;0.50;;
43676;SDS011;29275;48.800;18.102;2023-09-19T06:00:27;3.05;;;0.30;;
43676;SDS011;29275;48.800;18.102;2023-09-19T06:03:31;1.30;;;0.40;;
43676;SDS011;29275;48.800;18.102;2023-09-19T06:06:34;1.33;;;0.40;;
43676;SDS011;29275;48.800;18.102;2023-09-19T06:09:41;0.85;;;0.38;;
43676;SDS011;29275;48.800;18.102;2023-09-19T06:12:46;2.35;;;0.50;;
43676;SDS011;29275;48.800;18.102;2023-09-19T06:15:50;1.40;;;0.50;;
43676;SDS011;29275;48.800;18.102;2023-09-19T06:18:54;2.00;;;0.73;;
43676;SDS011;29275;48.800;18.102;2023-09-19T06:21:58;0.77;;;0.40;;
43676;SDS011;29275;48.800;18.102;2023-09-19T06:25:02;1.50;;;0.52;;
43676;SDS011;29275;48.800;18.102;2023-09-19T06:28:08;1.30;;;0.50;;
43676;SDS011;29275;48.800;18.102;2023-09-19T06:31:14;1.98;;;0.40;;
43676;SDS011;29275;48.800;18.102;2023-09-19T06:34:17;1.25;;;0.40;;
43676;SDS011;29275;48.800;18.102;2023-09-19T06:37:21;1.05;;;0.45;;
43676;SDS011;29275;48.800;18.102;2023-09-19T06:40:25;1.80;;;0.50;;
43676;SDS011;29275;48.800;18.102;2023-09-19T06:43:28;2.65;;;0.55;;
43676;SDS011;29275;48.800;18.102;2023-09-19T06:46:33;1.13;;;0.40;;
43676;SDS011;29275;48.800;18.102;2023-09-19T06:49:38;1.50;;;0.30;;
43676;SDS011;29275;48.800;18.102;2023-09-19T06:52:41;0.75;;;0.40;;
43676;SDS011;29275;48.800;18.102;2023-09-19T06:55:45;5.07;;;0.50;;
43676;SDS011;29275;48.800;18.102;2023-09-19T06:58:47;1.13;;;0.40;;
43676;SDS011;29275;48.800;18.102;2023-09-19T07:01:50;0.77;;;0.40;;
43676;SDS011;29275;48.800;18.102;2023-09-19T07:04:53;0.98;;;0.30;;
43676;SDS011;29275;48.800;18.102;2023-09-19T07:07:56;0.40;;;0.30;;
43676;SDS011;29275;48.800;18.102;2023-09-19T07:11:03;1.52;;;0.43;;
43676;SDS011;29275;48.800;18.102;2023-09-19T07:14:08;1.38;;;0.30;;
43676;SDS011;29275;48.800;18.102;2023-09-19T07:17:14;0.82;;;0.30;;
43676;SDS011;29275;48.800;18.102;2023-09-19T07:20:20;0.80;;;0.40;;
43676;SDS011;29275;48.800;18.102;2023-09-19T07:23:23;0.77;;;0.30;;
43676;SDS011;29275;48.800;18.102;2023-09-19T07:26:26;0.80;;;0.40;;
43676;SDS011;29275;48.800;18.102;2023-09-19T07:29:30;1.02;;;0.40;;
43676;SDS011;29275;48.800;18.102;2023-09-19T07:32:33;1.13;;;0.43;;
43676;SDS011;29275;48.800;18.102;2023-09-19T07:35:39;0.63;;;0.40;;
43676;SDS011;29275;48.800;18.102;2023-09-19T07:38:44;0.45;;;0.30;;
43676;SDS011;29275;48.800;18.102;2023-09-19T07:41:47;1.05;;;0.50;;
43676;SDS011;29275;48.800;18.102;2023-09-19T07:44:52;2.30;;;0.52;;
43676;SDS011;29275;48.800;18.102;2023-09-19T07:47:56;2.17;;;0.50;;
43676;SDS011;29275;48.800;18.102;2023-09-19T07:51:03;2.60;;;0.65;;
43676;SDS011;29275;48.800;18.102;2023-09-19T07:54:07;3.40;;;0.60;;
43676;SDS011;29275;48.800;18.102;2023-09-19T07:57:11;1.60;;;0.40;;
43676;SDS011;29275;48.800;18.102;2023-09-19T08:00:15;3.70;;;0.50;;
43676;SDS011;29275;48.800;18.102;2023-09-19T08:03:19;2.55;;;0.60;;
43676;SDS011;29275;48.800;18.102;2023-09-19T08:06:23;0.70;;;0.30;;
43676;SDS011;29275;48.800;18.102;2023-09-19T08:09:26;1.48;;;0.47;;
43676;SDS011;29275;48.800;18.102;2023-09-19T08:12:30;3.40;;;0.60;;
43676;SDS011;29275;48.800;18.102;2023-09-19T08:15:33;4.50;;;0.73;;
43676;SDS011;29275;48.800;18.102;2023-09-19T08:21:43;2.10;;;0.60;;
43676;SDS011;29275;48.800;18.102;2023-09-19T08:24:50;1.50;;;0.50;;
43676;SDS011;29275;48.800;18.102;2023-09-19T08:27:53;0.93;;;0.50;;
43676;SDS011;29275;48.800;18.102;2023-09-19T08:31:01;3.38;;;0.73;;
43676;SDS011;29275;48.800;18.102;2023-09-19T08:34:08;2.67;;;0.45;;
43676;SDS011;29275;48.800;18.102;2023-09-19T08:37:14;2.20;;;0.50;;
43676;SDS011;29275;48.800;18.102;2023-09-19T08:43:21;1.70;;;0.40;;
43676;SDS011;29275;48.800;18.102;2023-09-19T08:46:24;2.63;;;0.60;;
43676;SDS011;29275;48.800;18.102;2023-09-19T08:49:43;0.63;;;0.30;;
43676;SDS011;29275;48.800;18.102;2023-09-19T08:52:56;1.88;;;0.52;;
43676;SDS011;29275;48.800;18.102;2023-09-19T08:56:03;1.48;;;0.40;;
43676;SDS011;29275;48.800;18.102;2023-09-19T08:59:13;3.00;;;0.40;;
43676;SDS011;29275;48.800;18.102;2023-09-19T09:02:17;0.75;;;0.30;;
43676;SDS011;29275;48.800;18.102;2023-09-19T09:05:22;1.15;;;0.40;;
43676;SDS011;29275;48.800;18.102;2023-09-19T09:08:26;1.60;;;0.47;;
43676;SDS011;29275;48.800;18.102;2023-09-19T09:11:30;1.88;;;0.50;;
43676;SDS011;29275;48.800;18.102;2023-09-19T09:14:35;1.35;;;0.32;;
43676;SDS011;29275;48.800;18.102;2023-09-19T09:17:39;1.30;;;0.50;;
43676;SDS011;29275;48.800;18.102;2023-09-19T09:20:43;3.20;;;0.50;;
43676;SDS011;29275;48.800;18.102;2023-09-19T09:23:49;1.80;;;0.40;;
43676;SDS011;29275;48.800;18.102;2023-09-19T09:26:55;1.05;;;0.45;;
43676;SDS011;29275;48.800;18.102;2023-09-19T09:29:59;2.83;;;0.50;;
43676;SDS011;29275;48.800;18.102;2023-09-19T09:33:08;1.17;;;0.50;;
43676;SDS011;29275;48.800;18.102;2023-09-19T09:36:14;1.10;;;0.38;;
43676;SDS011;29275;48.800;18.102;2023-09-19T09:39:30;0.70;;;0.40;;
43676;SDS011;29275;48.800;18.102;2023-09-19T09:42:36;4.43;;;0.40;;
43676;SDS011;29275;48.800;18.102;2023-09-19T09:45:41;2.35;;;0.70;;
43676;SDS011;29275;48.800;18.102;2023-09-19T09:52:18;2.58;;;0.50;;
43676;SDS011;29275;48.800;18.102;2023-09-19T09:55:22;3.00;;;0.70;;
43676;SDS011;29275;48.800;18.102;2023-09-19T09:58:25;2.15;;;0.80;;
43676;SDS011;29275;48.800;18.102;2023-09-19T10:01:47;1.38;;;0.43;;
43676;SDS011;29275;48.800;18.102;2023-09-19T10:04:51;3.22;;;0.50;;
43676;SDS011;29275;48.800;18.102;2023-09-19T10:08:10;0.60;;;0.30;;
43676;SDS011;29275;48.800;18.102;2023-09-19T10:11:16;2.55;;;0.38;;
43676;SDS011;29275;48.800;18.102;2023-09-19T10:14:20;1.58;;;0.50;;
43676;SDS011;29275;48.800;18.102;2023-09-19T10:17:27;1.38;;;0.60;;
43676;SDS011;29275;48.800;18.102;2023-09-19T10:20:33;2.10;;;0.47;;
43676;SDS011;29275;48.800;18.102;2023-09-19T10:23:38;2.03;;;0.70;;
43676;SDS011;29275;48.800;18.102;2023-09-19T10:26:45;1.92;;;0.80;;
43676;SDS011;29275;48.800;18.102;2023-09-19T10:29:54;1.45;;;0.50;;
43676;SDS011;29275;48.800;18.102;2023-09-19T10:33:01;1.92;;;0.82;;
43676;SDS011;29275;48.800;18.102;2023-09-19T10:36:06;1.27;;;0.50;;
43676;SDS011;29275;48.800;18.102;2023-09-19T10:39:11;2.35;;;0.60;;
43676;SDS011;29275;48.800;18.102;2023-09-19T10:42:21;2.40;;;0.63;;
43676;SDS011;29275;48.800;18.102;2023-09-19T10:45:28;4.32;;;0.63;;
43676;SDS011;29275;48.800;18.102;2023-09-19T10:48:32;1.10;;;0.60;;
43676;SDS011;29275;48.800;18.102;2023-09-19T10:51:39;1.58;;;0.63;;
43676;SDS011;29275;48.800;18.102;2023-09-19T10:54:45;1.23;;;0.65;;
43676;SDS011;29275;48.800;18.102;2023-09-19T10:57:53;2.45;;;0.47;;
43676;SDS011;29275;48.800;18.102;2023-09-19T11:00:57;5.18;;;0.70;;
43676;SDS011;29275;48.800;18.102;2023-09-19T11:04:24;1.98;;;0.47;;
43676;SDS011;29275;48.800;18.102;2023-09-19T11:07:29;1.52;;;0.70;;
43676;SDS011;29275;48.800;18.102;2023-09-19T11:10:46;2.00;;;0.68;;
43676;SDS011;29275;48.800;18.102;2023-09-19T11:14:13;4.28;;;0.70;;
43676;SDS011;29275;48.800;18.102;2023-09-19T11:17:34;4.20;;;1.00;;
43676;SDS011;29275;48.800;18.102;2023-09-19T11:20:40;2.58;;;0.68;;
43676;SDS011;29275;48.800;18.102;2023-09-19T11:23:44;1.85;;;0.68;;
43676;SDS011;29275;48.800;18.102;2023-09-19T11:27:13;1.10;;;0.60;;
43676;SDS011;29275;48.800;18.102;2023-09-19T11:30:26;1.60;;;0.55;;
43676;SDS011;29275;48.800;18.102;2023-09-19T11:33:30;1.05;;;0.60;;
43676;SDS011;29275;48.800;18.102;2023-09-19T11:36:36;5.03;;;1.00;;
43676;SDS011;29275;48.800;18.102;2023-09-19T11:39:39;2.75;;;0.90;;
43676;SDS011;29275;48.800;18.102;2023-09-19T11:42:46;1.42;;;0.70;;
43676;SDS011;29275;48.800;18.102;2023-09-19T11:49:07;1.92;;;1.00;;
43676;SDS011;29275;48.800;18.102;2023-09-19T11:52:18;3.05;;;1.05;;
43676;SDS011;29275;48.800;18.102;2023-09-19T11:55:28;1.33;;;0.52;;
43676;SDS011;29275;48.800;18.102;2023-09-19T11:58:35;3.95;;;0.80;;
43676;SDS011;29275;48.800;18.102;2023-09-19T12:01:43;1.60;;;0.70;;
43676;SDS011;29275;48.800;18.102;2023-09-19T12:04:57;3.38;;;0.70;;
43676;SDS011;29275;48.800;18.102;2023-09-19T12:08:05;3.53;;;0.85;;
43676;SDS011;29275;48.800;18.102;2023-09-19T12:11:13;3.90;;;0.80;;
43676;SDS011;29275;48.800;18.102;2023-09-19T12:14:26;5.60;;;0.90;;
43676;SDS011;29275;48.800;18.102;2023-09-19T12:17:39;1.58;;;0.85;;
43676;SDS011;29275;48.800;18.102;2023-09-19T12:20:47;3.47;;;0.90;;
43676;SDS011;29275;48.800;18.102;2023-09-19T12:27:16;5.32;;;1.27;;
43676;SDS011;29275;48.800;18.102;2023-09-19T12:30:20;6.47;;;1.15;;
43676;SDS011;29275;48.800;18.102;2023-09-19T12:33:33;4.22;;;1.33;;
43676;SDS011;29275;48.800;18.102;2023-09-19T12:36:38;3.13;;;1.40;;
43676;SDS011;29275;48.800;18.102;2023-09-19T12:39:43;2.85;;;1.30;;
43676;SDS011;29275;48.800;18.102;2023-09-19T12:42:55;3.10;;;1.35;;
43676;SDS011;29275;48.800;18.102;2023-09-19T12:45:59;5.20;;;1.75;;
43676;SDS011;29275;48.800;18.102;2023-09-19T12:49:18;2.83;;;1.45;;
43676;SDS011;29275;48.800;18.102;2023-09-19T12:52:33;2.83;;;1.17;;
43676;SDS011;29275;48.800;18.102;2023-09-19T12:55:40;1.90;;;1.10;;
43676;SDS011;29275;48.800;18.102;2023-09-19T12:58:55;3.92;;;1.02;;
43676;SDS011;29275;48.800;18.102;2023-09-19T13:02:05;1.63;;;0.80;;
43676;SDS011;29275;48.800;18.102;2023-09-19T13:05:10;1.48;;;0.90;;
43676;SDS011;29275;48.800;18.102;2023-09-19T13:08:32;2.92;;;1.20;;
43676;SDS011;29275;48.800;18.102;2023-09-19T13:11:41;2.20;;;0.98;;
43676;SDS011;29275;48.800;18.102;2023-09-19T13:17:55;3.15;;;0.90;;
43676;SDS011;29275;48.800;18.102;2023-09-19T13:21:06;1.02;;;0.70;;
43676;SDS011;29275;48.800;18.102;2023-09-19T13:24:21;3.72;;;0.80;;
43676;SDS011;29275;48.800;18.102;2023-09-19T13:27:25;1.40;;;0.90;;
43676;SDS011;29275;48.800;18.102;2023-09-19T13:30:30;3.15;;;0.77;;
43676;SDS011;29275;48.800;18.102;2023-09-19T13:33:34;1.25;;;0.65;;
43676;SDS011;29275;48.800;18.102;2023-09-19T13:36:38;2.20;;;0.80;;
43676;SDS011;29275;48.800;18.102;2023-09-19T13:39:41;1.73;;;0.68;;
43676;SDS011;29275;48.800;18.102;2023-09-19T13:42:49;1.88;;;0.70;;
43676;SDS011;29275;48.800;18.102;2023-09-19T13:45:56;2.88;;;0.80;;
43676;SDS011;29275;48.800;18.102;2023-09-19T13:49:01;3.53;;;0.80;;
43676;SDS011;29275;48.800;18.102;2023-09-19T13:52:05;4.03;;;0.90;;
43676;SDS011;29275;48.800;18.102;2023-09-19T13:55:09;3.78;;;1.00;;
43676;SDS011;29275;48.800;18.102;2023-09-19T13:58:12;4.00;;;0.93;;
43676;SDS011;29275;48.800;18.102;2023-09-19T14:01:16;4.05;;;1.13;;
43676;SDS011;29275;48.800;18.102;2023-09-19T14:04:19;1.70;;;1.00;;
43676;SDS011;29275;48.800;18.102;2023-09-19T14:07:24;2.25;;;0.85;;
43676;SDS011;29275;48.800;18.102;2023-09-19T14:10:28;1.13;;;0.70;;
43676;SDS011;29275;48.800;18.102;2023-09-19T14:13:33;4.55;;;0.82;;
43676;SDS011;29275;48.800;18.102;2023-09-19T14:16:36;1.95;;;0.98;;
43676;SDS011;29275;48.800;18.102;2023-09-19T14:19:40;5.60;;;1.10;;
43676;SDS011;29275;48.800;18.102;2023-09-19T14:22:47;3.10;;;0.80;;
43676;SDS011;29275;48.800;18.102;2023-09-19T14:25:50;3.28;;;1.77;;
43676;SDS011;29275;48.800;18.102;2023-09-19T14:28:56;1.50;;;0.90;;
43676;SDS011;29275;48.800;18.102;2023-09-19T14:32:01;1.52;;;0.63;;
43676;SDS011;29275;48.800;18.102;2023-09-19T14:35:06;0.80;;;0.47;;
43676;SDS011;29275;48.800;18.102;2023-09-19T14:38:12;1.65;;;0.73;;
43676;SDS011;29275;48.800;18.102;2023-09-19T14:41:14;1.15;;;0.50;;
43676;SDS011;29275;48.800;18.102;2023-09-19T14:44:18;1.42;;;0.63;;
43676;SDS011;29275;48.800;18.102;2023-09-19T14:47:21;1.25;;;0.55;;
43676;SDS011;29275;48.800;18.102;2023-09-19T14:50:26;3.10;;;0.80;;
43676;SDS011;29275;48.800;18.102;2023-09-19T14:53:30;0.95;;;0.40;;
43676;SDS011;29275;48.800;18.102;2023-09-19T14:56:33;1.38;;;0.55;;
43676;SDS011;29275;48.800;18.102;2023-09-19T14:59:38;1.17;;;0.50;;
43676;SDS011;29275;48.800;18.102;2023-09-19T15:02:44;1.38;;;0.52;;
43676;SDS011;29275;48.800;18.102;2023-09-19T15:05:49;1.75;;;0.52;;
43676;SDS011;29275;48.800;18.102;2023-09-19T15:08:52;2.60;;;0.80;;
43676;SDS011;29275;48.800;18.102;2023-09-19T15:11:57;6.07;;;0.75;;
43676;SDS011;29275;48.800;18.102;2023-09-19T15:15:01;3.13;;;0.60;;
43676;SDS011;29275;48.800;18.102;2023-09-19T15:18:05;1.70;;;0.80;;
43676;SDS011;29275;48.800;18.102;2023-09-19T15:21:09;1.30;;;0.50;;
43676;SDS011;29275;48.800;18.102;2023-09-19T15:24:13;1.92;;;0.82;;
43676;SDS011;29275;48.800;18.102;2023-09-19T15:27:17;0.80;;;0.50;;
43676;SDS011;29275;48.800;18.102;2023-09-19T15:30:22;2.20;;;0.80;;
43676;SDS011;29275;48.800;18.102;2023-09-19T15:33:26;1.98;;;0.77;;
43676;SDS011;29275;48.800;18.102;2023-09-19T15:36:31;2.97;;;0.73;;
43676;SDS011;29275;48.800;18.102;2023-09-19T15:39:34;3.47;;;0.70;;
43676;SDS011;29275;48.800;18.102;2023-09-19T15:42:41;1.30;;;0.70;;
43676;SDS011;29275;48.800;18.102;2023-09-19T15:45:45;2.42;;;0.60;;
43676;SDS011;29275;48.800;18.102;2023-09-19T15:48:48;1.38;;;0.63;;
43676;SDS011;29275;48.800;18.102;2023-09-19T15:51:52;4.47;;;0.45;;
43676;SDS011;29275;48.800;18.102;2023-09-19T15:54:55;4.57;;;0.70;;
43676;SDS011;29275;48.800;18.102;2023-09-19T15:57:58;3.83;;;0.60;;
43676;SDS011;29275;48.800;18.102;2023-09-19T16:01:05;3.10;;;1.20;;
43676;SDS011;29275;48.800;18.102;2023-09-19T16:04:11;3.63;;;2.25;;
43676;SDS011;29275;48.800;18.102;2023-09-19T16:07:15;3.85;;;1.05;;
43676;SDS011;29275;48.800;18.102;2023-09-19T16:10:20;2.55;;;0.90;;
43676;SDS011;29275;48.800;18.102;2023-09-19T16:13:25;4.70;;;0.70;;
43676;SDS011;29275;48.800;18.102;2023-09-19T16:16:29;5.85;;;1.00;;
43676;SDS011;29275;48.800;18.102;2023-09-19T16:19:34;4.63;;;0.60;;
43676;SDS011;29275;48.800;18.102;2023-09-19T16:22:36;3.50;;;0.60;;
43676;SDS011;29275;48.800;18.102;2023-09-19T16:25:40;2.20;;;0.98;;
43676;SDS011;29275;48.800;18.102;2023-09-19T16:28:44;1.52;;;0.70;;
43676;SDS011;29275;48.800;18.102;2023-09-19T16:31:48;1.70;;;0.60;;
43676;SDS011;29275;48.800;18.102;2023-09-19T16:34:52;1.77;;;0.73;;
43676;SDS011;29275;48.800;18.102;2023-09-19T16:37:57;6.07;;;0.70;;
43676;SDS011;29275;48.800;18.102;2023-09-19T16:41:01;2.05;;;0.80;;
43676;SDS011;29275;48.800;18.102;2023-09-19T16:44:05;1.88;;;0.63;;
43676;SDS011;29275;48.800;18.102;2023-09-19T16:47:12;3.33;;;0.47;;
43676;SDS011;29275;48.800;18.102;2023-09-19T16:50:15;7.13;;;1.25;;
43676;SDS011;29275;48.800;18.102;2023-09-19T16:53:19;1.52;;;0.68;;
43676;SDS011;29275;48.800;18.102;2023-09-19T16:56:22;4.70;;;0.73;;
43676;SDS011;29275;48.800;18.102;2023-09-19T16:59:27;2.42;;;1.30;;
43676;SDS011;29275;48.800;18.102;2023-09-19T17:02:32;2.60;;;1.20;;
43676;SDS011;29275;48.800;18.102;2023-09-19T17:05:36;1.80;;;0.80;;
43676;SDS011;29275;48.800;18.102;2023-09-19T17:08:42;7.90;;;1.05;;
43676;SDS011;29275;48.800;18.102;2023-09-19T17:11:49;2.60;;;0.90;;
43676;SDS011;29275;48.800;18.102;2023-09-19T17:14:53;2.28;;;0.82;;
43676;SDS011;29275;48.800;18.102;2023-09-19T17:17:57;7.50;;;0.90;;
43676;SDS011;29275;48.800;18.102;2023-09-19T17:21:03;1.30;;;0.63;;
43676;SDS011;29275;48.800;18.102;2023-09-19T17:24:14;3.38;;;1.33;;
43676;SDS011;29275;48.800;18.102;2023-09-19T17:27:18;2.63;;;1.10;;
43676;SDS011;29275;48.800;18.102;2023-09-19T17:30:21;3.00;;;0.80;;
43676;SDS011;29275;48.800;18.102;2023-09-19T17:33:25;3.45;;;0.68;;
43676;SDS011;29275;48.800;18.102;2023-09-19T17:36:29;3.45;;;0.82;;
43676;SDS011;29275;48.800;18.102;2023-09-19T17:39:35;3.38;;;0.75;;
43676;SDS011;29275;48.800;18.102;2023-09-19T17:42:38;7.63;;;0.50;;
43676;SDS011;29275;48.800;18.102;2023-09-19T17:45:44;4.03;;;0.70;;
43676;SDS011;29275;48.800;18.102;2023-09-19T17:48:53;1.00;;;0.50;;
43676;SDS011;29275;48.800;18.102;2023-09-19T17:51:59;2.40;;;0.93;;
43676;SDS011;29275;48.800;18.102;2023-09-19T17:55:02;2.53;;;0.65;;
43676;SDS011;29275;48.800;18.102;2023-09-19T17:58:06;3.88;;;0.57;;
43676;SDS011;29275;48.800;18.102;2023-09-19T18:01:16;2.97;;;0.55;;
43676;SDS011;29275;48.800;18.102;2023-09-19T18:04:22;2.97;;;0.85;;
43676;SDS011;29275;48.800;18.102;2023-09-19T18:07:25;1.52;;;0.70;;
43676;SDS011;29275;48.800;18.102;2023-09-19T18:10:28;3.97;;;0.80;;
43676;SDS011;29275;48.800;18.102;2023-09-19T18:13:33;4.72;;;1.10;;
43676;SDS011;29275;48.800;18.102;2023-09-19T18:16:36;2.67;;;0.80;;
43676;SDS011;29275;48.800;18.102;2023-09-19T18:19:40;4.28;;;0.65;;
43676;SDS011;29275;48.800;18.102;2023-09-19T18:22:44;4.15;;;0.88;;
43676;SDS011;29275;48.800;18.102;2023-09-19T18:25:49;1.90;;;0.63;;
43676;SDS011;29275;48.800;18.102;2023-09-19T18:28:56;3.58;;;0.65;;
43676;SDS011;29275;48.800;18.102;2023-09-19T18:32:02;1.75;;;0.52;;
43676;SDS011;29275;48.800;18.102;2023-09-19T18:35:06;2.60;;;0.73;;
43676;SDS011;29275;48.800;18.102;2023-09-19T18:38:10;3.58;;;0.88;;
43676;SDS011;29275;48.800;18.102;2023-09-19T18:41:13;4.80;;;0.90;;
43676;SDS011;29275;48.800;18.102;2023-09-19T18:44:17;4.97;;;0.82;;
43676;SDS011;29275;48.800;18.102;2023-09-19T18:47:21;1.58;;;0.70;;
43676;SDS011;29275;48.800;18.102;2023-09-19T18:50:32;3.13;;;0.60;;
43676;SDS011;29275;48.800;18.102;2023-09-19T18:53:41;2.90;;;0.80;;